Margaux — 5VEH9 — position and weather

sailwx.info

Track history (hours):
 
Tides and Currents Weather Stations Pressure Air Temp Water Temp Dewpoint Dewpoint Depression Visibility Wind Speed Wind Dir Waves Ship Positions

Margaux

Last reported at 2018-Jun-04 23:41 UTC. Time now 2018-Jun-17 21:52 UTC.
Position N 37°28' E 025°56'.
Warning: this ship's position is 12 days out of date.

Length 126 m; draft 8.1 m.

Type: Cargo ship. MMSI: 671782000.

Date/timePositionNaut miles runAvg speedWind from/ knotsBaromVisibWave heightAir tempDewpointWater temp
2018-Jun-04 23:41N 37°28' E 025°56'210.7
2018-Jun-04 23:30N 37°30' E 025°55'510.7
2018-Jun-04 23:00N 37°35' E 025°52'231 8.4
2018-Jun-03 19:41N 40°52' E 028°27'210.9
2018-Jun-03 19:30N 40°52' E 028°29'1110.5
2018-Jun-03 18:27N 40°53' E 028°44'1110.5
2018-Jun-03 17:26N 40°57' E 028°57'1810.9
2018-Jun-03 15:46N 41°14' E 029°08'2 9.7
2018-Jun-03 15:31N 41°16' E 029°06'2 0.8
2018-Jun-03 12:45N 41°16' E 029°03'42 9.4
2018-Jun-03 08:17N 41°38' E 029°51'310.5
2018-Jun-03 07:58N 41°39' E 029°55'810.7
2018-Jun-03 07:12N 41°43' E 030°05'310.6
2018-Jun-03 06:56N 41°44' E 030°08'510.1
2018-Jun-03 06:26N 41°47' E 030°14'35610.9
2018-Jun-01 21:44N 44°29' E 037°28'311.3
2018-Jun-01 21:30N 44°30' E 037°31'611.3
2018-Jun-01 21:00N 44°32' E 037°38'511.0
2018-Jun-01 20:30N 44°35' E 037°45'510.0
2018-Jun-01 20:00N 44°38' E 037°50'4 7.2
2018-Jun-01 19:30N 44°42' E 037°49'2 4.5
2018-Jun-01 19:00N 44°43' E 037°47'0 0.1
2018-Jun-01 18:30N 44°43' E 037°47'0 0.0
2018-Jun-01 18:00N 44°43' E 037°47'0 0.0
2018-Jun-01 17:30N 44°43' E 037°47'0 0.0
2018-Jun-01 17:00N 44°43' E 037°47'0 0.0
2018-Jun-01 16:30N 44°43' E 037°47'0 0.0
2018-Jun-01 16:00N 44°43' E 037°47'0 0.0
2018-Jun-01 15:30N 44°43' E 037°47'0 0.0
2018-Jun-01 15:00N 44°43' E 037°47'0 0.0
2018-Jun-01 14:30N 44°43' E 037°47'0 0.0
2018-Jun-01 14:00N 44°43' E 037°47'0 0.0
2018-Jun-01 13:30N 44°43' E 037°47'0 0.0
2018-Jun-01 13:00N 44°43' E 037°47'0 0.0
2018-Jun-01 12:29N 44°43' E 037°47'0 0.0
2018-Jun-01 12:00N 44°43' E 037°47'0 0.0
2018-Jun-01 11:30N 44°43' E 037°47'0 0.0
2018-Jun-01 11:00N 44°43' E 037°47'0 0.0
2018-Jun-01 10:30N 44°43' E 037°47'0 0.0
2018-Jun-01 10:00N 44°43' E 037°47'0 0.0
2018-Jun-01 09:30N 44°43' E 037°47'0 0.0
2018-Jun-01 09:00N 44°43' E 037°47'0 0.0
2018-Jun-01 08:30N 44°43' E 037°47'0 0.0
2018-Jun-01 08:00N 44°43' E 037°47'0 0.0
2018-Jun-01 07:30N 44°43' E 037°47'0 0.0
2018-Jun-01 07:00N 44°43' E 037°47'0 0.0
2018-Jun-01 06:30N 44°43' E 037°47'0 0.0
2018-Jun-01 06:00N 44°43' E 037°47'0 0.0
2018-Jun-01 05:29N 44°43' E 037°47'0 0.0
2018-Jun-01 05:00N 44°43' E 037°47'0 0.0
2018-Jun-01 04:30N 44°43' E 037°47'0 0.0
2018-Jun-01 04:00N 44°43' E 037°47'0 0.0
2018-Jun-01 03:30N 44°43' E 037°47'0 0.0
2018-Jun-01 03:00N 44°43' E 037°47'0 0.0
2018-Jun-01 02:30N 44°43' E 037°47'0 0.0
2018-Jun-01 02:00N 44°43' E 037°47'0 0.0
2018-Jun-01 01:30N 44°43' E 037°47'0 0.0
2018-Jun-01 01:00N 44°43' E 037°47'0 0.0
2018-Jun-01 00:30N 44°43' E 037°47'0 0.0
2018-Jun-01 00:00N 44°43' E 037°47'0 0.0
2018-May-31 23:30N 44°43' E 037°47'0 0.0
2018-May-31 23:00N 44°43' E 037°47'0 0.0
2018-May-31 22:30N 44°43' E 037°47'0 0.0
2018-May-31 22:00N 44°43' E 037°47'0 0.0
2018-May-31 21:30N 44°43' E 037°47'0 0.0
2018-May-31 21:00N 44°43' E 037°47'0 0.0
2018-May-31 20:30N 44°43' E 037°47'0 0.0
2018-May-31 20:00N 44°43' E 037°47'0 0.0
2018-May-31 19:30N 44°43' E 037°47'0 0.0
2018-May-31 19:00N 44°43' E 037°47'0 0.0
2018-May-31 18:30N 44°43' E 037°47'0 0.0
2018-May-31 18:00N 44°43' E 037°47'0 0.0
2018-May-31 17:30N 44°43' E 037°47'0 0.0
2018-May-31 17:00N 44°43' E 037°47'0 0.0
2018-May-31 16:30N 44°43' E 037°47'0 0.0
2018-May-31 16:00N 44°43' E 037°47'0 0.0
2018-May-31 15:30N 44°43' E 037°47'0 0.0
2018-May-31 15:00N 44°43' E 037°47'0 0.0
2018-May-31 14:30N 44°43' E 037°47'0 0.0
2018-May-31 14:00N 44°43' E 037°47'0 0.0
2018-May-31 13:30N 44°43' E 037°47'0 0.0
2018-May-31 13:00N 44°43' E 037°47'0 0.0
2018-May-31 12:30N 44°43' E 037°47'0 0.0
2018-May-31 12:00N 44°43' E 037°47'0 0.0
2018-May-31 11:30N 44°43' E 037°47'0 0.0
2018-May-31 11:00N 44°43' E 037°47'0 0.0
2018-May-31 10:30N 44°43' E 037°47'0 0.0
2018-May-31 10:00N 44°43' E 037°47'0 0.0
2018-May-31 09:30N 44°43' E 037°47'0 0.0
2018-May-31 09:00N 44°43' E 037°47'0 0.0
2018-May-31 08:30N 44°43' E 037°47'0 0.0
2018-May-31 08:00N 44°43' E 037°47'0 0.0
2018-May-31 07:30N 44°43' E 037°47'0 0.0
2018-May-31 07:00N 44°43' E 037°47'0 0.0
2018-May-31 06:30N 44°43' E 037°47'0 0.0
2018-May-31 06:00N 44°43' E 037°47'0 0.0
2018-May-31 05:30N 44°43' E 037°47'0 0.0
2018-May-31 05:00N 44°43' E 037°47'0 0.0
2018-May-31 04:30N 44°43' E 037°47'0 0.0
2018-May-31 04:00N 44°43' E 037°47'0 0.0
2018-May-31 03:30N 44°43' E 037°47'0 0.0
2018-May-31 02:59N 44°43' E 037°47'0 0.0
2018-May-31 02:30N 44°43' E 037°47'0 0.0
2018-May-31 02:00N 44°43' E 037°47'0 0.0
2018-May-31 01:30N 44°43' E 037°47'0 0.0
2018-May-31 01:00N 44°43' E 037°47'0 0.0
2018-May-31 00:30N 44°43' E 037°47'0 0.0
2018-May-31 00:00N 44°43' E 037°47'0 0.0
2018-May-30 23:30N 44°43' E 037°47'0 0.0
2018-May-30 23:00N 44°43' E 037°47'0 0.0
2018-May-30 22:30N 44°43' E 037°47'0 0.0
2018-May-30 22:00N 44°43' E 037°47'0 0.0
2018-May-30 21:30N 44°43' E 037°47'0 0.0
2018-May-30 21:00N 44°43' E 037°47'0 0.0
2018-May-30 20:30N 44°43' E 037°47'0 0.0
2018-May-30 20:00N 44°43' E 037°47'0 0.0
2018-May-30 19:30N 44°43' E 037°47'0 0.0
2018-May-30 19:00N 44°43' E 037°47'0 0.0
2018-May-30 18:30N 44°43' E 037°47'0 0.0
2018-May-30 18:00N 44°43' E 037°47'0 0.1
2018-May-30 17:30N 44°43' E 037°47'0 0.1
2018-May-30 17:00N 44°43' E 037°47'0 0.0
2018-May-30 16:30N 44°43' E 037°47'0 0.0
2018-May-30 16:00N 44°43' E 037°47'0 0.0
2018-May-30 15:30N 44°43' E 037°47'0 0.0
2018-May-30 15:00N 44°43' E 037°47'0 0.0
2018-May-30 14:30N 44°43' E 037°47'0 0.0
2018-May-30 14:00N 44°43' E 037°47'0 0.0
2018-May-30 13:30N 44°43' E 037°47'0 0.0
2018-May-30 13:00N 44°43' E 037°47'0 0.0
2018-May-30 12:30N 44°43' E 037°47'0 0.0
2018-May-30 12:00N 44°43' E 037°47'0 0.0
2018-May-30 11:30N 44°43' E 037°47'0 0.0
2018-May-30 11:00N 44°43' E 037°47'0 0.0
2018-May-30 10:30N 44°43' E 037°47'0 0.0
2018-May-30 10:00N 44°43' E 037°47'0 0.0
2018-May-30 09:30N 44°43' E 037°47'0 0.0
2018-May-30 09:00N 44°43' E 037°47'0 0.0
2018-May-30 08:30N 44°43' E 037°47'0 0.0
2018-May-30 08:00N 44°43' E 037°47'0 0.0
2018-May-30 07:30N 44°43' E 037°47'0 0.0
2018-May-30 07:00N 44°43' E 037°47'0 0.0
2018-May-30 06:29N 44°43' E 037°47'0 0.0
2018-May-30 06:00N 44°43' E 037°47'0 0.0
2018-May-30 05:30N 44°43' E 037°47'0 0.0
2018-May-30 05:00N 44°43' E 037°47'0 0.0
2018-May-30 04:30N 44°43' E 037°47'0 0.0
2018-May-30 03:59N 44°43' E 037°47'0 0.0
2018-May-30 03:30N 44°43' E 037°47'0 0.0
2018-May-30 03:00N 44°43' E 037°47'0 0.0
2018-May-30 02:30N 44°43' E 037°47'0 0.0
2018-May-30 02:00N 44°43' E 037°47'0 0.0
2018-May-30 01:30N 44°43' E 037°47'0 0.0
2018-May-30 01:00N 44°43' E 037°47'0 0.0
2018-May-30 00:30N 44°43' E 037°47'0 0.0
2018-May-30 00:00N 44°43' E 037°47'0 0.0
2018-May-29 23:30N 44°43' E 037°47'0 0.0
2018-May-29 23:00N 44°43' E 037°47'0 0.0
2018-May-29 22:30N 44°43' E 037°47'0 0.0
2018-May-29 22:00N 44°43' E 037°47'0 0.0
2018-May-29 21:30N 44°43' E 037°47'0 0.0
2018-May-29 21:00N 44°43' E 037°47'0 0.0
2018-May-29 20:30N 44°43' E 037°47'0 0.0
2018-May-29 20:00N 44°43' E 037°47'0 0.0
2018-May-29 19:30N 44°43' E 037°47'0 0.0
2018-May-29 19:00N 44°43' E 037°47'0 0.0
2018-May-29 18:30N 44°43' E 037°47'0 0.0
2018-May-29 18:00N 44°43' E 037°47'0 0.0
2018-May-29 17:30N 44°43' E 037°47'0 0.0
2018-May-29 17:00N 44°43' E 037°47'0 0.0
2018-May-29 16:30N 44°43' E 037°47'0 0.0
2018-May-29 16:00N 44°43' E 037°47'0 0.0
2018-May-29 15:30N 44°43' E 037°47'0 0.0
2018-May-29 15:00N 44°43' E 037°47'0 0.0
2018-May-29 14:29N 44°43' E 037°47'0 0.0
2018-May-29 14:00N 44°43' E 037°47'0 0.0
2018-May-29 13:30N 44°43' E 037°47'0 0.0
2018-May-29 13:00N 44°43' E 037°47'0 0.0
2018-May-29 12:30N 44°43' E 037°47'0 0.0
2018-May-29 12:00N 44°43' E 037°47'0 0.0
2018-May-29 11:30N 44°43' E 037°47'0 0.0
2018-May-29 11:00N 44°43' E 037°47'0 0.0
2018-May-29 10:30N 44°43' E 037°47'0 0.0
2018-May-29 10:00N 44°43' E 037°47'0 0.0
2018-May-29 09:30N 44°43' E 037°47'0 0.0
2018-May-29 09:00N 44°43' E 037°47'0 0.0
2018-May-29 08:30N 44°43' E 037°47'0 0.0
2018-May-29 07:59N 44°43' E 037°47'0 0.0
2018-May-29 07:29N 44°43' E 037°47'0 0.0
2018-May-29 06:59N 44°43' E 037°47'0 0.0
2018-May-29 06:30N 44°43' E 037°47'0 0.0
2018-May-29 06:00N 44°43' E 037°47'0 0.0
2018-May-29 05:30N 44°43' E 037°47'0 0.0
2018-May-29 05:00N 44°43' E 037°47'0 0.0
2018-May-29 04:30N 44°43' E 037°47'0 0.0
2018-May-29 04:00N 44°43' E 037°47'0 0.0
2018-May-29 03:30N 44°43' E 037°47'0 0.0
2018-May-29 03:00N 44°43' E 037°47'0 0.0
2018-May-29 02:30N 44°43' E 037°47'0 0.0
2018-May-29 02:00N 44°43' E 037°47'0 0.0
2018-May-29 01:30N 44°43' E 037°47'0 0.0
2018-May-29 01:00N 44°43' E 037°47'0 0.0
2018-May-29 00:30N 44°43' E 037°47'0 0.0
2018-May-29 00:00N 44°43' E 037°47'0 0.0
2018-May-28 23:29N 44°43' E 037°47'0 0.0
2018-May-28 23:00N 44°43' E 037°47'0 0.0
2018-May-28 22:30N 44°43' E 037°47'0 0.0
2018-May-28 22:00N 44°43' E 037°47'0 0.0
2018-May-28 21:30N 44°43' E 037°47'0 0.0
2018-May-28 21:00N 44°43' E 037°47'0 0.0
2018-May-28 20:30N 44°43' E 037°47'0 0.0
2018-May-28 20:00N 44°43' E 037°47'0 0.0
2018-May-28 19:30N 44°43' E 037°47'0 0.0
2018-May-28 19:00N 44°43' E 037°47'0 0.0
2018-May-28 18:30N 44°43' E 037°47'0 0.0
2018-May-28 18:00N 44°43' E 037°47'0 0.0
2018-May-28 17:30N 44°43' E 037°47'0 0.0
2018-May-28 17:00N 44°43' E 037°47'0 0.0
2018-May-28 16:30N 44°43' E 037°47'0 0.0
2018-May-28 16:00N 44°43' E 037°47'0 0.0
2018-May-28 15:30N 44°43' E 037°47'0 0.0
2018-May-28 15:00N 44°43' E 037°47'0 0.0
2018-May-28 14:30N 44°43' E 037°47'0 0.0
2018-May-28 14:00N 44°43' E 037°47'0 0.0
2018-May-28 13:30N 44°43' E 037°47'0 0.0
2018-May-28 13:00N 44°43' E 037°47'0 0.0
2018-May-28 12:30N 44°43' E 037°47'0 0.0
2018-May-28 12:00N 44°43' E 037°47'0 0.0
2018-May-28 11:30N 44°43' E 037°47'0 0.0
2018-May-28 11:00N 44°43' E 037°47'0 0.0
2018-May-28 10:30N 44°43' E 037°47'0 0.0
2018-May-28 10:00N 44°43' E 037°47'0 0.0
2018-May-28 09:30N 44°43' E 037°47'0 0.0
2018-May-28 09:00N 44°43' E 037°47'0 0.0
2018-May-28 08:30N 44°43' E 037°47'0 0.0
2018-May-28 08:00N 44°43' E 037°47'0 0.0
2018-May-28 07:30N 44°43' E 037°47'0 0.0
2018-May-28 07:00N 44°43' E 037°47'0 0.0
2018-May-28 06:30N 44°43' E 037°47'0 0.0
2018-May-28 06:00N 44°43' E 037°47'0 0.0
2018-May-28 05:30N 44°43' E 037°47'0 0.0
2018-May-28 05:00N 44°43' E 037°47'0 0.0
2018-May-28 04:30N 44°43' E 037°47'0 0.0
2018-May-28 04:00N 44°43' E 037°47'0 0.0
2018-May-28 03:30N 44°43' E 037°47'0 0.0
2018-May-28 03:00N 44°43' E 037°47'0 0.0
2018-May-28 02:30N 44°43' E 037°47'0 0.0
2018-May-28 02:00N 44°43' E 037°47'0 0.0
2018-May-28 01:30N 44°43' E 037°47'0 0.0
2018-May-28 01:00N 44°43' E 037°47'0 0.0
2018-May-28 00:30N 44°43' E 037°47'0 0.0
2018-May-28 00:00N 44°43' E 037°47'0 0.0
2018-May-27 23:30N 44°43' E 037°47'0 0.0
2018-May-27 23:00N 44°43' E 037°47'0 0.0
2018-May-27 22:30N 44°43' E 037°47'0 0.0
2018-May-27 22:00N 44°43' E 037°47'0 0.0
2018-May-27 21:30N 44°43' E 037°47'0 0.0
2018-May-27 21:00N 44°43' E 037°47'0 0.0
2018-May-27 20:30N 44°43' E 037°47'0 0.0
2018-May-27 20:00N 44°43' E 037°47'0 0.0
2018-May-27 19:30N 44°43' E 037°47'0 0.0
2018-May-27 19:00N 44°43' E 037°47'0 0.0
2018-May-27 18:30N 44°43' E 037°47'0 0.0
2018-May-27 18:00N 44°43' E 037°47'0 0.0
2018-May-27 17:30N 44°43' E 037°47'0 0.0
2018-May-27 17:00N 44°43' E 037°47'0 0.0
2018-May-27 16:30N 44°43' E 037°47'0 0.0
2018-May-27 16:00N 44°43' E 037°47'0 0.0
2018-May-27 15:30N 44°43' E 037°47'0 0.0
2018-May-27 14:59N 44°43' E 037°47'1 2.3
2018-May-27 14:30N 44°43' E 037°48'4 7.1
2018-May-27 14:00N 44°40' E 037°50'4 7.4
2018-May-27 13:31N 44°36' E 037°51'4 8.0
2018-May-27 13:00N 44°35' E 037°46'4 8.6
2018-May-27 12:30N 44°33' E 037°40'4 8.4
2018-May-27 12:00N 44°32' E 037°34'4 8.8
2018-May-27 11:30N 44°34' E 037°29'6 8.7
2018-May-27 10:52N 44°35' E 037°21'3 8.8
2018-May-27 10:30N 44°36' E 037°17'4 0.6
2018-May-27 03:48N 44°33' E 037°20'1 1.9
2018-May-27 03:12N 44°33' E 037°22'1 2.0
2018-May-27 02:49N 44°33' E 037°23'1 2.1
2018-May-27 02:28N 44°32' E 037°24'1 2.3
2018-May-27 02:00N 44°32' E 037°25'1 2.3
2018-May-27 01:30N 44°32' E 037°27'1 2.4
2018-May-27 01:00N 44°32' E 037°29'1 2.4
2018-May-27 00:30N 44°31' E 037°30'1 2.4
2018-May-27 00:00N 44°31' E 037°32'1 2.5
2018-May-26 23:30N 44°31' E 037°34'1 2.4
2018-May-26 22:59N 44°31' E 037°35'1 2.5
2018-May-26 22:30N 44°30' E 037°37'1 2.6
2018-May-26 22:00N 44°30' E 037°39'1 2.4
2018-May-26 21:30N 44°30' E 037°40'1 2.5
2018-May-26 21:00N 44°30' E 037°42'2 4.2
2018-May-26 20:30N 44°30' E 037°45'510.7
2018-May-26 20:00N 44°33' E 037°51'3 6.2
2018-May-26 19:30N 44°34' E 037°55'1 1.0
2018-May-26 19:01N 44°35' E 037°55'1 1.7
2018-May-26 18:29N 44°34' E 037°56'0 0.1
2018-May-26 17:59N 44°34' E 037°56'0 0.0
2018-May-26 17:29N 44°34' E 037°57'0 0.1
2018-May-26 16:59N 44°35' E 037°56'0 0.0
2018-May-26 16:29N 44°35' E 037°56'0 0.0
2018-May-26 15:59N 44°35' E 037°56'0 0.0
2018-May-26 15:29N 44°35' E 037°56'0 0.0
2018-May-26 14:59N 44°35' E 037°56'0 0.0
2018-May-26 14:29N 44°35' E 037°56'0 0.0
2018-May-26 13:59N 44°35' E 037°56'0 0.0
2018-May-26 13:29N 44°35' E 037°56'0 0.0
2018-May-26 12:59N 44°35' E 037°56'0 0.0
2018-May-26 12:29N 44°35' E 037°56'0 0.0
2018-May-26 11:59N 44°35' E 037°56'0 0.0
2018-May-26 11:29N 44°35' E 037°56'0 0.0
2018-May-26 10:59N 44°35' E 037°56'0 0.2
2018-May-26 10:29N 44°35' E 037°56'0 0.2
2018-May-26 09:59N 44°35' E 037°56'0 0.1
2018-May-26 09:29N 44°35' E 037°57'0 0.1
2018-May-26 08:59N 44°35' E 037°56'0 0.1
2018-May-26 08:29N 44°35' E 037°57'0 0.0
2018-May-26 07:59N 44°35' E 037°56'0 0.0
2018-May-26 07:29N 44°35' E 037°56'0 0.0
2018-May-26 06:59N 44°35' E 037°57'0 0.0
2018-May-26 06:29N 44°35' E 037°56'0 0.0
2018-May-26 05:29N 44°35' E 037°56'0 0.1
2018-May-26 04:59N 44°35' E 037°56'0 0.1
2018-May-26 04:29N 44°35' E 037°57'0 0.0
2018-May-26 03:59N 44°35' E 037°57'0 0.1
2018-May-26 03:29N 44°35' E 037°57'0 0.0
2018-May-26 02:59N 44°35' E 037°57'0 0.0
2018-May-26 02:29N 44°35' E 037°57'0 0.0
2018-May-26 01:59N 44°35' E 037°57'0 0.1
2018-May-26 01:29N 44°35' E 037°56'0 0.1
2018-May-26 00:59N 44°35' E 037°57'0 0.0
2018-May-26 00:29N 44°35' E 037°57'0 0.0
2018-May-25 23:59N 44°35' E 037°57'  
Track history (hours):
 
Tides and Currents Weather Stations Pressure Air Temp Water Temp Dewpoint Dewpoint Depression Visibility Wind Speed Wind Dir Waves Ship Positions

Margaux

Last reported at 2018-Jun-04 23:41 UTC. Time now 2018-Jun-17 21:52 UTC.
Position N 37°28' E 025°56'.
Warning: this ship's position is 12 days out of date.

Length 126 m; draft 8.1 m.

Type: Cargo ship. MMSI: 671782000.

Date/timePositionNaut miles runAvg speedWind from/ knotsBaromVisibWave heightAir tempDewpointWater temp
2018-Jun-04 23:41N 37°28' E 025°56'210.7
2018-Jun-04 23:30N 37°30' E 025°55'510.7
2018-Jun-04 23:00N 37°35' E 025°52'231 8.4
2018-Jun-03 19:41N 40°52' E 028°27'210.9
2018-Jun-03 19:30N 40°52' E 028°29'1110.5
2018-Jun-03 18:27N 40°53' E 028°44'1110.5
2018-Jun-03 17:26N 40°57' E 028°57'1810.9
2018-Jun-03 15:46N 41°14' E 029°08'2 9.7
2018-Jun-03 15:31N 41°16' E 029°06'2 0.8
2018-Jun-03 12:45N 41°16' E 029°03'42 9.4
2018-Jun-03 08:17N 41°38' E 029°51'310.5
2018-Jun-03 07:58N 41°39' E 029°55'810.7
2018-Jun-03 07:12N 41°43' E 030°05'310.6
2018-Jun-03 06:56N 41°44' E 030°08'510.1
2018-Jun-03 06:26N 41°47' E 030°14'35610.9
2018-Jun-01 21:44N 44°29' E 037°28'311.3
2018-Jun-01 21:30N 44°30' E 037°31'611.3
2018-Jun-01 21:00N 44°32' E 037°38'511.0
2018-Jun-01 20:30N 44°35' E 037°45'510.0
2018-Jun-01 20:00N 44°38' E 037°50'4 7.2
2018-Jun-01 19:30N 44°42' E 037°49'2 4.5
2018-Jun-01 19:00N 44°43' E 037°47'0 0.1
2018-Jun-01 18:30N 44°43' E 037°47'0 0.0
2018-Jun-01 18:00N 44°43' E 037°47'0 0.0
2018-Jun-01 17:30N 44°43' E 037°47'0 0.0
2018-Jun-01 17:00N 44°43' E 037°47'0 0.0
2018-Jun-01 16:30N 44°43' E 037°47'0 0.0
2018-Jun-01 16:00N 44°43' E 037°47'0 0.0
2018-Jun-01 15:30N 44°43' E 037°47'0 0.0
2018-Jun-01 15:00N 44°43' E 037°47'0 0.0
2018-Jun-01 14:30N 44°43' E 037°47'0 0.0
2018-Jun-01 14:00N 44°43' E 037°47'0 0.0
2018-Jun-01 13:30N 44°43' E 037°47'0 0.0
2018-Jun-01 13:00N 44°43' E 037°47'0 0.0
2018-Jun-01 12:29N 44°43' E 037°47'0 0.0
2018-Jun-01 12:00N 44°43' E 037°47'0 0.0
2018-Jun-01 11:30N 44°43' E 037°47'0 0.0
2018-Jun-01 11:00N 44°43' E 037°47'0 0.0
2018-Jun-01 10:30N 44°43' E 037°47'0 0.0
2018-Jun-01 10:00N 44°43' E 037°47'0 0.0
2018-Jun-01 09:30N 44°43' E 037°47'0 0.0
2018-Jun-01 09:00N 44°43' E 037°47'0 0.0
2018-Jun-01 08:30N 44°43' E 037°47'0 0.0
2018-Jun-01 08:00N 44°43' E 037°47'0 0.0
2018-Jun-01 07:30N 44°43' E 037°47'0 0.0
2018-Jun-01 07:00N 44°43' E 037°47'0 0.0
2018-Jun-01 06:30N 44°43' E 037°47'0 0.0
2018-Jun-01 06:00N 44°43' E 037°47'0 0.0
2018-Jun-01 05:29N 44°43' E 037°47'0 0.0
2018-Jun-01 05:00N 44°43' E 037°47'0 0.0
2018-Jun-01 04:30N 44°43' E 037°47'0 0.0
2018-Jun-01 04:00N 44°43' E 037°47'0 0.0
2018-Jun-01 03:30N 44°43' E 037°47'0 0.0
2018-Jun-01 03:00N 44°43' E 037°47'0 0.0
2018-Jun-01 02:30N 44°43' E 037°47'0 0.0
2018-Jun-01 02:00N 44°43' E 037°47'0 0.0
2018-Jun-01 01:30N 44°43' E 037°47'0 0.0
2018-Jun-01 01:00N 44°43' E 037°47'0 0.0
2018-Jun-01 00:30N 44°43' E 037°47'0 0.0
2018-Jun-01 00:00N 44°43' E 037°47'0 0.0
2018-May-31 23:30N 44°43' E 037°47'0 0.0
2018-May-31 23:00N 44°43' E 037°47'0 0.0
2018-May-31 22:30N 44°43' E 037°47'0 0.0
2018-May-31 22:00N 44°43' E 037°47'0 0.0
2018-May-31 21:30N 44°43' E 037°47'0 0.0
2018-May-31 21:00N 44°43' E 037°47'0 0.0
2018-May-31 20:30N 44°43' E 037°47'0 0.0
2018-May-31 20:00N 44°43' E 037°47'0 0.0
2018-May-31 19:30N 44°43' E 037°47'0 0.0
2018-May-31 19:00N 44°43' E 037°47'0 0.0
2018-May-31 18:30N 44°43' E 037°47'0 0.0
2018-May-31 18:00N 44°43' E 037°47'0 0.0
2018-May-31 17:30N 44°43' E 037°47'0 0.0
2018-May-31 17:00N 44°43' E 037°47'0 0.0
2018-May-31 16:30N 44°43' E 037°47'0 0.0
2018-May-31 16:00N 44°43' E 037°47'0 0.0
2018-May-31 15:30N 44°43' E 037°47'0 0.0
2018-May-31 15:00N 44°43' E 037°47'0 0.0
2018-May-31 14:30N 44°43' E 037°47'0 0.0
2018-May-31 14:00N 44°43' E 037°47'0 0.0
2018-May-31 13:30N 44°43' E 037°47'0 0.0
2018-May-31 13:00N 44°43' E 037°47'0 0.0
2018-May-31 12:30N 44°43' E 037°47'0 0.0
2018-May-31 12:00N 44°43' E 037°47'0 0.0
2018-May-31 11:30N 44°43' E 037°47'0 0.0
2018-May-31 11:00N 44°43' E 037°47'0 0.0
2018-May-31 10:30N 44°43' E 037°47'0 0.0
2018-May-31 10:00N 44°43' E 037°47'0 0.0
2018-May-31 09:30N 44°43' E 037°47'0 0.0
2018-May-31 09:00N 44°43' E 037°47'0 0.0
2018-May-31 08:30N 44°43' E 037°47'0 0.0
2018-May-31 08:00N 44°43' E 037°47'0 0.0
2018-May-31 07:30N 44°43' E 037°47'0 0.0
2018-May-31 07:00N 44°43' E 037°47'0 0.0
2018-May-31 06:30N 44°43' E 037°47'0 0.0
2018-May-31 06:00N 44°43' E 037°47'0 0.0
2018-May-31 05:30N 44°43' E 037°47'0 0.0
2018-May-31 05:00N 44°43' E 037°47'0 0.0
2018-May-31 04:30N 44°43' E 037°47'0 0.0
2018-May-31 04:00N 44°43' E 037°47'0 0.0
2018-May-31 03:30N 44°43' E 037°47'0 0.0
2018-May-31 02:59N 44°43' E 037°47'0 0.0
2018-May-31 02:30N 44°43' E 037°47'0 0.0
2018-May-31 02:00N 44°43' E 037°47'0 0.0
2018-May-31 01:30N 44°43' E 037°47'0 0.0
2018-May-31 01:00N 44°43' E 037°47'0 0.0
2018-May-31 00:30N 44°43' E 037°47'0 0.0
2018-May-31 00:00N 44°43' E 037°47'0 0.0
2018-May-30 23:30N 44°43' E 037°47'0 0.0
2018-May-30 23:00N 44°43' E 037°47'0 0.0
2018-May-30 22:30N 44°43' E 037°47'0 0.0
2018-May-30 22:00N 44°43' E 037°47'0 0.0
2018-May-30 21:30N 44°43' E 037°47'0 0.0
2018-May-30 21:00N 44°43' E 037°47'0 0.0
2018-May-30 20:30N 44°43' E 037°47'0 0.0
2018-May-30 20:00N 44°43' E 037°47'0 0.0
2018-May-30 19:30N 44°43' E 037°47'0 0.0
2018-May-30 19:00N 44°43' E 037°47'0 0.0
2018-May-30 18:30N 44°43' E 037°47'0 0.0
2018-May-30 18:00N 44°43' E 037°47'0 0.1
2018-May-30 17:30N 44°43' E 037°47'0 0.1
2018-May-30 17:00N 44°43' E 037°47'0 0.0
2018-May-30 16:30N 44°43' E 037°47'0 0.0
2018-May-30 16:00N 44°43' E 037°47'0 0.0
2018-May-30 15:30N 44°43' E 037°47'0 0.0
2018-May-30 15:00N 44°43' E 037°47'0 0.0
2018-May-30 14:30N 44°43' E 037°47'0 0.0
2018-May-30 14:00N 44°43' E 037°47'0 0.0
2018-May-30 13:30N 44°43' E 037°47'0 0.0
2018-May-30 13:00N 44°43' E 037°47'0 0.0
2018-May-30 12:30N 44°43' E 037°47'0 0.0
2018-May-30 12:00N 44°43' E 037°47'0 0.0
2018-May-30 11:30N 44°43' E 037°47'0 0.0
2018-May-30 11:00N 44°43' E 037°47'0 0.0
2018-May-30 10:30N 44°43' E 037°47'0 0.0
2018-May-30 10:00N 44°43' E 037°47'0 0.0
2018-May-30 09:30N 44°43' E 037°47'0 0.0
2018-May-30 09:00N 44°43' E 037°47'0 0.0
2018-May-30 08:30N 44°43' E 037°47'0 0.0
2018-May-30 08:00N 44°43' E 037°47'0 0.0
2018-May-30 07:30N 44°43' E 037°47'0 0.0
2018-May-30 07:00N 44°43' E 037°47'0 0.0
2018-May-30 06:29N 44°43' E 037°47'0 0.0
2018-May-30 06:00N 44°43' E 037°47'0 0.0
2018-May-30 05:30N 44°43' E 037°47'0 0.0
2018-May-30 05:00N 44°43' E 037°47'0 0.0
2018-May-30 04:30N 44°43' E 037°47'0 0.0
2018-May-30 03:59N 44°43' E 037°47'0 0.0
2018-May-30 03:30N 44°43' E 037°47'0 0.0
2018-May-30 03:00N 44°43' E 037°47'0 0.0
2018-May-30 02:30N 44°43' E 037°47'0 0.0
2018-May-30 02:00N 44°43' E 037°47'0 0.0
2018-May-30 01:30N 44°43' E 037°47'0 0.0
2018-May-30 01:00N 44°43' E 037°47'0 0.0
2018-May-30 00:30N 44°43' E 037°47'0 0.0
2018-May-30 00:00N 44°43' E 037°47'0 0.0
2018-May-29 23:30N 44°43' E 037°47'0 0.0
2018-May-29 23:00N 44°43' E 037°47'0 0.0
2018-May-29 22:30N 44°43' E 037°47'0 0.0
2018-May-29 22:00N 44°43' E 037°47'0 0.0
2018-May-29 21:30N 44°43' E 037°47'0 0.0
2018-May-29 21:00N 44°43' E 037°47'0 0.0
2018-May-29 20:30N 44°43' E 037°47'0 0.0
2018-May-29 20:00N 44°43' E 037°47'0 0.0
2018-May-29 19:30N 44°43' E 037°47'0 0.0
2018-May-29 19:00N 44°43' E 037°47'0 0.0
2018-May-29 18:30N 44°43' E 037°47'0 0.0
2018-May-29 18:00N 44°43' E 037°47'0 0.0
2018-May-29 17:30N 44°43' E 037°47'0 0.0
2018-May-29 17:00N 44°43' E 037°47'0 0.0
2018-May-29 16:30N 44°43' E 037°47'0 0.0
2018-May-29 16:00N 44°43' E 037°47'0 0.0
2018-May-29 15:30N 44°43' E 037°47'0 0.0
2018-May-29 15:00N 44°43' E 037°47'0 0.0
2018-May-29 14:29N 44°43' E 037°47'0 0.0
2018-May-29 14:00N 44°43' E 037°47'0 0.0
2018-May-29 13:30N 44°43' E 037°47'0 0.0
2018-May-29 13:00N 44°43' E 037°47'0 0.0
2018-May-29 12:30N 44°43' E 037°47'0 0.0
2018-May-29 12:00N 44°43' E 037°47'0 0.0
2018-May-29 11:30N 44°43' E 037°47'0 0.0
2018-May-29 11:00N 44°43' E 037°47'0 0.0
2018-May-29 10:30N 44°43' E 037°47'0 0.0
2018-May-29 10:00N 44°43' E 037°47'0 0.0
2018-May-29 09:30N 44°43' E 037°47'0 0.0
2018-May-29 09:00N 44°43' E 037°47'0 0.0
2018-May-29 08:30N 44°43' E 037°47'0 0.0
2018-May-29 07:59N 44°43' E 037°47'0 0.0
2018-May-29 07:29N 44°43' E 037°47'0 0.0
2018-May-29 06:59N 44°43' E 037°47'0 0.0
2018-May-29 06:30N 44°43' E 037°47'0 0.0
2018-May-29 06:00N 44°43' E 037°47'0 0.0
2018-May-29 05:30N 44°43' E 037°47'0 0.0
2018-May-29 05:00N 44°43' E 037°47'0 0.0
2018-May-29 04:30N 44°43' E 037°47'0 0.0
2018-May-29 04:00N 44°43' E 037°47'0 0.0
2018-May-29 03:30N 44°43' E 037°47'0 0.0
2018-May-29 03:00N 44°43' E 037°47'0 0.0
2018-May-29 02:30N 44°43' E 037°47'0 0.0
2018-May-29 02:00N 44°43' E 037°47'0 0.0
2018-May-29 01:30N 44°43' E 037°47'0 0.0
2018-May-29 01:00N 44°43' E 037°47'0 0.0
2018-May-29 00:30N 44°43' E 037°47'0 0.0
2018-May-29 00:00N 44°43' E 037°47'0 0.0
2018-May-28 23:29N 44°43' E 037°47'0 0.0
2018-May-28 23:00N 44°43' E 037°47'0 0.0
2018-May-28 22:30N 44°43' E 037°47'0 0.0
2018-May-28 22:00N 44°43' E 037°47'0 0.0
2018-May-28 21:30N 44°43' E 037°47'0 0.0
2018-May-28 21:00N 44°43' E 037°47'0 0.0
2018-May-28 20:30N 44°43' E 037°47'0 0.0
2018-May-28 20:00N 44°43' E 037°47'0 0.0
2018-May-28 19:30N 44°43' E 037°47'0 0.0
2018-May-28 19:00N 44°43' E 037°47'0 0.0
2018-May-28 18:30N 44°43' E 037°47'0 0.0
2018-May-28 18:00N 44°43' E 037°47'0 0.0
2018-May-28 17:30N 44°43' E 037°47'0 0.0
2018-May-28 17:00N 44°43' E 037°47'0 0.0
2018-May-28 16:30N 44°43' E 037°47'0 0.0
2018-May-28 16:00N 44°43' E 037°47'0 0.0
2018-May-28 15:30N 44°43' E 037°47'0 0.0
2018-May-28 15:00N 44°43' E 037°47'0 0.0
2018-May-28 14:30N 44°43' E 037°47'0 0.0
2018-May-28 14:00N 44°43' E 037°47'0 0.0
2018-May-28 13:30N 44°43' E 037°47'0 0.0
2018-May-28 13:00N 44°43' E 037°47'0 0.0
2018-May-28 12:30N 44°43' E 037°47'0 0.0
2018-May-28 12:00N 44°43' E 037°47'0 0.0
2018-May-28 11:30N 44°43' E 037°47'0 0.0
2018-May-28 11:00N 44°43' E 037°47'0 0.0
2018-May-28 10:30N 44°43' E 037°47'0 0.0
2018-May-28 10:00N 44°43' E 037°47'0 0.0
2018-May-28 09:30N 44°43' E 037°47'0 0.0
2018-May-28 09:00N 44°43' E 037°47'0 0.0
2018-May-28 08:30N 44°43' E 037°47'0 0.0
2018-May-28 08:00N 44°43' E 037°47'0 0.0
2018-May-28 07:30N 44°43' E 037°47'0 0.0
2018-May-28 07:00N 44°43' E 037°47'0 0.0
2018-May-28 06:30N 44°43' E 037°47'0 0.0
2018-May-28 06:00N 44°43' E 037°47'0 0.0
2018-May-28 05:30N 44°43' E 037°47'0 0.0
2018-May-28 05:00N 44°43' E 037°47'0 0.0
2018-May-28 04:30N 44°43' E 037°47'0 0.0
2018-May-28 04:00N 44°43' E 037°47'0 0.0
2018-May-28 03:30N 44°43' E 037°47'0 0.0
2018-May-28 03:00N 44°43' E 037°47'0 0.0
2018-May-28 02:30N 44°43' E 037°47'0 0.0
2018-May-28 02:00N 44°43' E 037°47'0 0.0
2018-May-28 01:30N 44°43' E 037°47'0 0.0
2018-May-28 01:00N 44°43' E 037°47'0 0.0
2018-May-28 00:30N 44°43' E 037°47'0 0.0
2018-May-28 00:00N 44°43' E 037°47'0 0.0
2018-May-27 23:30N 44°43' E 037°47'0 0.0
2018-May-27 23:00N 44°43' E 037°47'0 0.0
2018-May-27 22:30N 44°43' E 037°47'0 0.0
2018-May-27 22:00N 44°43' E 037°47'0 0.0
2018-May-27 21:30N 44°43' E 037°47'0 0.0
2018-May-27 21:00N 44°43' E 037°47'0 0.0
2018-May-27 20:30N 44°43' E 037°47'0 0.0
2018-May-27 20:00N 44°43' E 037°47'0 0.0
2018-May-27 19:30N 44°43' E 037°47'0 0.0
2018-May-27 19:00N 44°43' E 037°47'0 0.0
2018-May-27 18:30N 44°43' E 037°47'0 0.0
2018-May-27 18:00N 44°43' E 037°47'0 0.0
2018-May-27 17:30N 44°43' E 037°47'0 0.0
2018-May-27 17:00N 44°43' E 037°47'0 0.0
2018-May-27 16:30N 44°43' E 037°47'0 0.0
2018-May-27 16:00N 44°43' E 037°47'0 0.0
2018-May-27 15:30N 44°43' E 037°47'0 0.0
2018-May-27 14:59N 44°43' E 037°47'1 2.3
2018-May-27 14:30N 44°43' E 037°48'4 7.1
2018-May-27 14:00N 44°40' E 037°50'4 7.4
2018-May-27 13:31N 44°36' E 037°51'4 8.0
2018-May-27 13:00N 44°35' E 037°46'4 8.6
2018-May-27 12:30N 44°33' E 037°40'4 8.4
2018-May-27 12:00N 44°32' E 037°34'4 8.8
2018-May-27 11:30N 44°34' E 037°29'6 8.7
2018-May-27 10:52N 44°35' E 037°21'3 8.8
2018-May-27 10:30N 44°36' E 037°17'4 0.6
2018-May-27 03:48N 44°33' E 037°20'1 1.9
2018-May-27 03:12N 44°33' E 037°22'1 2.0
2018-May-27 02:49N 44°33' E 037°23'1 2.1
2018-May-27 02:28N 44°32' E 037°24'1 2.3
2018-May-27 02:00N 44°32' E 037°25'1 2.3
2018-May-27 01:30N 44°32' E 037°27'1 2.4
2018-May-27 01:00N 44°32' E 037°29'1 2.4
2018-May-27 00:30N 44°31' E 037°30'1 2.4
2018-May-27 00:00N 44°31' E 037°32'1 2.5
2018-May-26 23:30N 44°31' E 037°34'1 2.4
2018-May-26 22:59N 44°31' E 037°35'1 2.5
2018-May-26 22:30N 44°30' E 037°37'1 2.6
2018-May-26 22:00N 44°30' E 037°39'1 2.4
2018-May-26 21:30N 44°30' E 037°40'1 2.5
2018-May-26 21:00N 44°30' E 037°42'2 4.2
2018-May-26 20:30N 44°30' E 037°45'510.7
2018-May-26 20:00N 44°33' E 037°51'3 6.2
2018-May-26 19:30N 44°34' E 037°55'1 1.0
2018-May-26 19:01N 44°35' E 037°55'1 1.7
2018-May-26 18:29N 44°34' E 037°56'0 0.1
2018-May-26 17:59N 44°34' E 037°56'0 0.0
2018-May-26 17:29N 44°34' E 037°57'0 0.1
2018-May-26 16:59N 44°35' E 037°56'0 0.0
2018-May-26 16:29N 44°35' E 037°56'0 0.0
2018-May-26 15:59N 44°35' E 037°56'0 0.0
2018-May-26 15:29N 44°35' E 037°56'0 0.0
2018-May-26 14:59N 44°35' E 037°56'0 0.0
2018-May-26 14:29N 44°35' E 037°56'0 0.0
2018-May-26 13:59N 44°35' E 037°56'0 0.0
2018-May-26 13:29N 44°35' E 037°56'0 0.0
2018-May-26 12:59N 44°35' E 037°56'0 0.0
2018-May-26 12:29N 44°35' E 037°56'0 0.0
2018-May-26 11:59N 44°35' E 037°56'0 0.0
2018-May-26 11:29N 44°35' E 037°56'0 0.0
2018-May-26 10:59N 44°35' E 037°56'0 0.2
2018-May-26 10:29N 44°35' E 037°56'0 0.2
2018-May-26 09:59N 44°35' E 037°56'0 0.1
2018-May-26 09:29N 44°35' E 037°57'0 0.1
2018-May-26 08:59N 44°35' E 037°56'0 0.1
2018-May-26 08:29N 44°35' E 037°57'0 0.0
2018-May-26 07:59N 44°35' E 037°56'0 0.0
2018-May-26 07:29N 44°35' E 037°56'0 0.0
2018-May-26 06:59N 44°35' E 037°57'0 0.0
2018-May-26 06:29N 44°35' E 037°56'0 0.0
2018-May-26 05:29N 44°35' E 037°56'0 0.1
2018-May-26 04:59N 44°35' E 037°56'0 0.1
2018-May-26 04:29N 44°35' E 037°57'0 0.0
2018-May-26 03:59N 44°35' E 037°57'0 0.1
2018-May-26 03:29N 44°35' E 037°57'0 0.0
2018-May-26 02:59N 44°35' E 037°57'0 0.0
2018-May-26 02:29N 44°35' E 037°57'0 0.0
2018-May-26 01:59N 44°35' E 037°57'0 0.1
2018-May-26 01:29N 44°35' E 037°56'0 0.1
2018-May-26 00:59N 44°35' E 037°57'0 0.0
2018-May-26 00:29N 44°35' E 037°57'0 0.0
2018-May-25 23:59N 44°35' E 037°57'  

Dump ship's entire track history